Search for airport 
image banner adimage banner ad
image banner ad

DNKN - Kano/Mallam Aminu Kano

Located in Kano, Nigeria

ICAO - DNKN, IATA - KAN

Data provided by Airmate  

General information

Coordinates: N12°2'53" E8°31'25"
Elevation is 1562 feet MSL.
 
Rated:
View ratings: [VIEW]


View others Airports in Kano

Operational data

Open for public use
Current time UTC:
Current local time:
Weather
METAR: DNKN 122300Z 27004KT 9999 FEW011 24/22 Q1017 NOSIG
TAF: TAF DNKN 122300Z 1300/1406 17005KT 9999 FEW011 BECMG 1306/1308 24008KT BKN010 TEMPO 1310/1316 06020KT 5000 TSRA BKN009 FEW018CB BECMG 1316/1318 FEW011
View NOTAMs / SUP AIP / TFR affecting this airport [VIEW]
Communications frequencies: [VIEW]

Runways:

RWY identifierQFULength (ft)Width (ft)SurfaceLDA (ft)
0661°10827197
24241°10827197
0544°8040148ASP
23224°8038148

Airport contact information

Address: Kano Nigeria

Satellite view of DNKN